< < Back
Terminal Aerodrome Forecast


Current Version              Previous Versions:   1  2  3  4  5  6  7  8  9  

Terminal Aerodrome Forecast

357
FTUS42 KCHS 310251 CCA
TAFCHS
TAF COR
KCHS 310251Z 3103/3124 31006KT P6SM -SHRA BKN008
      TEMPO 3103/3105 SCT008 BKN015
     FM310500 33004KT P6SM SCT005 BKN010
     FM311430 34007KT P6SM SCT015 BKN030
     FM311800 33007KT P6SM VCSH SCT030 BKN050=



Latest METAR

916
SAUS80 KWBC 310700 CCB
MTRCHS
METAR KCHS 310656Z 30005KT 10SM BKN004 OVC012 22/21 A2987 RMK AO2 SLP115
T02170206


USA.gov is the U.S. government's official web portal to all federal, state and local government web resources and services.